sensor_id;sensor_type;location;lat;lon;timestamp;temperature;humidity
2487;DHT22;1254;49.144;8.212;2022-09-06T00:00:36;18.50;99.90
2487;DHT22;1254;49.144;8.212;2022-09-06T00:03:03;18.50;99.90
2487;DHT22;1254;49.144;8.212;2022-09-06T00:05:31;18.40;99.90
2487;DHT22;1254;49.144;8.212;2022-09-06T00:07:59;18.40;99.90
2487;DHT22;1254;49.144;8.212;2022-09-06T00:10:27;18.50;99.90
2487;DHT22;1254;49.144;8.212;2022-09-06T00:12:54;18.50;99.90
2487;DHT22;1254;49.144;8.212;2022-09-06T00:15:21;18.60;99.90
2487;DHT22;1254;49.144;8.212;2022-09-06T00:17:48;18.50;99.90
2487;DHT22;1254;49.144;8.212;2022-09-06T00:20:14;18.50;99.90
2487;DHT22;1254;49.144;8.212;2022-09-06T00:22:41;18.60;99.90
2487;DHT22;1254;49.144;8.212;2022-09-06T00:25:08;18.60;99.90
2487;DHT22;1254;49.144;8.212;2022-09-06T00:27:34;18.60;99.90
2487;DHT22;1254;49.144;8.212;2022-09-06T00:30:01;18.60;99.90
2487;DHT22;1254;49.144;8.212;2022-09-06T00:32:30;18.60;99.90
2487;DHT22;1254;49.144;8.212;2022-09-06T00:34:56;18.70;99.90
2487;DHT22;1254;49.144;8.212;2022-09-06T00:37:22;18.60;99.90
2487;DHT22;1254;49.144;8.212;2022-09-06T00:39:49;18.60;99.90
2487;DHT22;1254;49.144;8.212;2022-09-06T00:42:15;18.60;99.90
2487;DHT22;1254;49.144;8.212;2022-09-06T00:44:42;18.50;99.90
2487;DHT22;1254;49.144;8.212;2022-09-06T00:47:08;18.30;99.90
2487;DHT22;1254;49.144;8.212;2022-09-06T00:49:42;18.20;99.90
2487;DHT22;1254;49.144;8.212;2022-09-06T00:52:11;18.30;99.90
2487;DHT22;1254;49.144;8.212;2022-09-06T00:54:39;18.40;99.90
2487;DHT22;1254;49.144;8.212;2022-09-06T00:57:06;18.30;99.90
2487;DHT22;1254;49.144;8.212;2022-09-06T00:59:35;18.30;99.90
2487;DHT22;1254;49.144;8.212;2022-09-06T01:02:02;18.20;99.90
2487;DHT22;1254;49.144;8.212;2022-09-06T01:04:31;17.50;99.90
2487;DHT22;1254;49.144;8.212;2022-09-06T01:07:17;18.60;99.90
2487;DHT22;1254;49.144;8.212;2022-09-06T01:10:46;19.70;99.90
2487;DHT22;1254;49.144;8.212;2022-09-06T01:26:49;19.70;99.90
2487;DHT22;1254;49.144;8.212;2022-09-06T01:29:26;19.60;99.90
2487;DHT22;1254;49.144;8.212;2022-09-06T01:34:55;19.50;99.90
2487;DHT22;1254;49.144;8.212;2022-09-06T01:37:24;19.40;99.90
2487;DHT22;1254;49.144;8.212;2022-09-06T01:39:50;19.40;99.90
2487;DHT22;1254;49.144;8.212;2022-09-06T01:42:23;19.40;99.90
2487;DHT22;1254;49.144;8.212;2022-09-06T01:45:03;19.40;99.90
2487;DHT22;1254;49.144;8.212;2022-09-06T01:47:45;19.40;99.90
2487;DHT22;1254;49.144;8.212;2022-09-06T01:52:58;19.40;99.90
2487;DHT22;1254;49.144;8.212;2022-09-06T01:55:49;19.20;99.90
2487;DHT22;1254;49.144;8.212;2022-09-06T02:04:17;19.20;99.90
2487;DHT22;1254;49.144;8.212;2022-09-06T02:06:49;19.20;99.90
2487;DHT22;1254;49.144;8.212;2022-09-06T02:09:22;19.30;99.90
2487;DHT22;1254;49.144;8.212;2022-09-06T02:12:00;19.20;99.90
2487;DHT22;1254;49.144;8.212;2022-09-06T02:14:51;19.10;99.90
2487;DHT22;1254;49.144;8.212;2022-09-06T02:17:23;19.10;99.90
2487;DHT22;1254;49.144;8.212;2022-09-06T02:19:55;19.20;99.90
2487;DHT22;1254;49.144;8.212;2022-09-06T02:22:26;19.20;99.90
2487;DHT22;1254;49.144;8.212;2022-09-06T02:24:54;19.20;99.90
2487;DHT22;1254;49.144;8.212;2022-09-06T02:27:22;19.30;99.90
2487;DHT22;1254;49.144;8.212;2022-09-06T02:29:48;19.20;99.90
2487;DHT22;1254;49.144;8.212;2022-09-06T02:32:22;19.10;99.90
2487;DHT22;1254;49.144;8.212;2022-09-06T02:34:52;19.10;99.90
2487;DHT22;1254;49.144;8.212;2022-09-06T02:37:19;19.00;99.90
2487;DHT22;1254;49.144;8.212;2022-09-06T02:39:46;19.00;99.90
2487;DHT22;1254;49.144;8.212;2022-09-06T02:42:14;19.00;99.90
2487;DHT22;1254;49.144;8.212;2022-09-06T02:44:42;18.90;99.90
2487;DHT22;1254;49.144;8.212;2022-09-06T02:47:09;18.90;99.90
2487;DHT22;1254;49.144;8.212;2022-09-06T02:49:36;18.90;99.90
2487;DHT22;1254;49.144;8.212;2022-09-06T02:52:02;18.90;99.90
2487;DHT22;1254;49.144;8.212;2022-09-06T02:54:28;19.00;99.90
2487;DHT22;1254;49.144;8.212;2022-09-06T02:56:56;19.10;99.90
2487;DHT22;1254;49.144;8.212;2022-09-06T02:59:22;19.20;99.90
2487;DHT22;1254;49.144;8.212;2022-09-06T03:01:49;19.20;99.90
2487;DHT22;1254;49.144;8.212;2022-09-06T03:04:15;19.20;99.90
2487;DHT22;1254;49.144;8.212;2022-09-06T03:06:42;19.20;99.90
2487;DHT22;1254;49.144;8.212;2022-09-06T03:09:08;19.10;99.90
2487;DHT22;1254;49.144;8.212;2022-09-06T03:11:36;19.00;99.90
2487;DHT22;1254;49.144;8.212;2022-09-06T03:14:03;19.00;99.90
2487;DHT22;1254;49.144;8.212;2022-09-06T03:16:30;19.00;99.90
2487;DHT22;1254;49.144;8.212;2022-09-06T03:18:56;19.00;99.90
2487;DHT22;1254;49.144;8.212;2022-09-06T03:21:23;18.90;99.90
2487;DHT22;1254;49.144;8.212;2022-09-06T03:23:49;18.80;99.90
2487;DHT22;1254;49.144;8.212;2022-09-06T03:26:16;18.90;99.90
2487;DHT22;1254;49.144;8.212;2022-09-06T03:28:42;18.70;99.90
2487;DHT22;1254;49.144;8.212;2022-09-06T03:31:09;18.50;99.90
2487;DHT22;1254;49.144;8.212;2022-09-06T03:33:35;18.40;99.90
2487;DHT22;1254;49.144;8.212;2022-09-06T03:36:02;18.30;99.90
2487;DHT22;1254;49.144;8.212;2022-09-06T03:38:29;18.20;99.90
2487;DHT22;1254;49.144;8.212;2022-09-06T03:40:56;18.10;99.90
2487;DHT22;1254;49.144;8.212;2022-09-06T03:43:23;18.10;99.90
2487;DHT22;1254;49.144;8.212;2022-09-06T03:45:52;18.10;99.90
2487;DHT22;1254;49.144;8.212;2022-09-06T03:48:20;18.10;99.90
2487;DHT22;1254;49.144;8.212;2022-09-06T03:50:51;18.10;99.90
2487;DHT22;1254;49.144;8.212;2022-09-06T03:53:20;18.00;99.90
2487;DHT22;1254;49.144;8.212;2022-09-06T03:55:48;18.00;99.90
2487;DHT22;1254;49.144;8.212;2022-09-06T03:58:16;17.80;99.90
2487;DHT22;1254;49.144;8.212;2022-09-06T04:00:43;17.70;99.90
2487;DHT22;1254;49.144;8.212;2022-09-06T04:03:10;17.60;99.90
2487;DHT22;1254;49.144;8.212;2022-09-06T04:05:37;17.60;99.90
2487;DHT22;1254;49.144;8.212;2022-09-06T04:08:03;17.50;99.90
2487;DHT22;1254;49.144;8.212;2022-09-06T04:10:31;17.50;99.90
2487;DHT22;1254;49.144;8.212;2022-09-06T04:12:57;17.50;99.90
2487;DHT22;1254;49.144;8.212;2022-09-06T04:15:24;17.40;99.90
2487;DHT22;1254;49.144;8.212;2022-09-06T04:17:50;17.40;99.90
2487;DHT22;1254;49.144;8.212;2022-09-06T04:20:17;17.40;99.90
2487;DHT22;1254;49.144;8.212;2022-09-06T04:22:43;17.40;99.90
2487;DHT22;1254;49.144;8.212;2022-09-06T04:25:10;17.30;99.90
2487;DHT22;1254;49.144;8.212;2022-09-06T04:27:37;17.30;99.90
2487;DHT22;1254;49.144;8.212;2022-09-06T04:30:04;17.20;99.90
2487;DHT22;1254;49.144;8.212;2022-09-06T04:32:31;17.20;99.90
2487;DHT22;1254;49.144;8.212;2022-09-06T04:34:57;17.10;99.90
2487;DHT22;1254;49.144;8.212;2022-09-06T04:37:24;17.10;99.90
2487;DHT22;1254;49.144;8.212;2022-09-06T04:39:50;17.10;99.90
2487;DHT22;1254;49.144;8.212;2022-09-06T04:42:17;17.00;99.90
2487;DHT22;1254;49.144;8.212;2022-09-06T04:44:43;17.00;99.90
2487;DHT22;1254;49.144;8.212;2022-09-06T04:47:12;17.00;99.90
2487;DHT22;1254;49.144;8.212;2022-09-06T04:49:40;16.90;99.90
2487;DHT22;1254;49.144;8.212;2022-09-06T04:52:07;16.90;99.90
2487;DHT22;1254;49.144;8.212;2022-09-06T04:54:34;16.90;99.90
2487;DHT22;1254;49.144;8.212;2022-09-06T04:57:00;16.90;99.90
2487;DHT22;1254;49.144;8.212;2022-09-06T04:59:27;16.90;99.90
2487;DHT22;1254;49.144;8.212;2022-09-06T05:01:53;16.90;99.90
2487;DHT22;1254;49.144;8.212;2022-09-06T05:04:20;16.90;99.90
2487;DHT22;1254;49.144;8.212;2022-09-06T05:06:46;16.90;99.90
2487;DHT22;1254;49.144;8.212;2022-09-06T05:09:13;17.00;99.90
2487;DHT22;1254;49.144;8.212;2022-09-06T05:11:40;17.00;99.90
2487;DHT22;1254;49.144;8.212;2022-09-06T05:14:06;17.10;99.90
2487;DHT22;1254;49.144;8.212;2022-09-06T05:16:32;17.10;99.90
2487;DHT22;1254;49.144;8.212;2022-09-06T05:18:59;17.10;99.90
2487;DHT22;1254;49.144;8.212;2022-09-06T05:21:25;17.20;99.90
2487;DHT22;1254;49.144;8.212;2022-09-06T05:23:52;17.20;99.90
2487;DHT22;1254;49.144;8.212;2022-09-06T05:26:18;17.30;99.90
2487;DHT22;1254;49.144;8.212;2022-09-06T05:28:45;17.30;99.90
2487;DHT22;1254;49.144;8.212;2022-09-06T05:31:22;17.30;99.90
2487;DHT22;1254;49.144;8.212;2022-09-06T05:33:51;17.30;99.90
2487;DHT22;1254;49.144;8.212;2022-09-06T05:36:19;17.20;99.90
2487;DHT22;1254;49.144;8.212;2022-09-06T05:38:46;17.20;99.90
2487;DHT22;1254;49.144;8.212;2022-09-06T05:41:12;17.30;99.90
2487;DHT22;1254;49.144;8.212;2022-09-06T05:43:38;17.40;99.90
2487;DHT22;1254;49.144;8.212;2022-09-06T05:46:05;17.40;99.90
2487;DHT22;1254;49.144;8.212;2022-09-06T05:48:31;17.40;99.90
2487;DHT22;1254;49.144;8.212;2022-09-06T05:51:02;17.40;99.90
2487;DHT22;1254;49.144;8.212;2022-09-06T05:53:39;17.40;99.90
2487;DHT22;1254;49.144;8.212;2022-09-06T05:56:07;17.40;99.90
2487;DHT22;1254;49.144;8.212;2022-09-06T05:58:34;17.40;99.90
2487;DHT22;1254;49.144;8.212;2022-09-06T06:01:27;17.50;99.90
2487;DHT22;1254;49.144;8.212;2022-09-06T06:03:56;17.60;99.90
2487;DHT22;1254;49.144;8.212;2022-09-06T06:06:24;17.60;99.90
2487;DHT22;1254;49.144;8.212;2022-09-06T06:08:50;17.60;99.90
2487;DHT22;1254;49.144;8.212;2022-09-06T06:11:17;17.70;99.90
2487;DHT22;1254;49.144;8.212;2022-09-06T06:13:44;17.90;99.90
2487;DHT22;1254;49.144;8.212;2022-09-06T06:16:13;17.90;99.90
2487;DHT22;1254;49.144;8.212;2022-09-06T06:18:40;18.10;99.90
2487;DHT22;1254;49.144;8.212;2022-09-06T06:21:08;18.20;99.90
2487;DHT22;1254;49.144;8.212;2022-09-06T06:23:35;18.30;99.90
2487;DHT22;1254;49.144;8.212;2022-09-06T06:26:01;18.40;99.90
2487;DHT22;1254;49.144;8.212;2022-09-06T06:28:28;18.50;99.90
2487;DHT22;1254;49.144;8.212;2022-09-06T06:30:54;18.40;99.90
2487;DHT22;1254;49.144;8.212;2022-09-06T06:33:21;18.50;99.90
2487;DHT22;1254;49.144;8.212;2022-09-06T06:36:02;18.60;99.90
2487;DHT22;1254;49.144;8.212;2022-09-06T06:38:36;18.70;99.90
2487;DHT22;1254;49.144;8.212;2022-09-06T06:41:04;18.80;99.90
2487;DHT22;1254;49.144;8.212;2022-09-06T06:43:31;19.00;99.90
2487;DHT22;1254;49.144;8.212;2022-09-06T06:46:13;19.00;99.90
2487;DHT22;1254;49.144;8.212;2022-09-06T06:48:40;19.00;99.90
2487;DHT22;1254;49.144;8.212;2022-09-06T06:51:18;19.10;99.90
2487;DHT22;1254;49.144;8.212;2022-09-06T06:53:45;19.30;99.90
2487;DHT22;1254;49.144;8.212;2022-09-06T06:56:21;19.50;99.90
2487;DHT22;1254;49.144;8.212;2022-09-06T06:58:50;19.60;99.90
2487;DHT22;1254;49.144;8.212;2022-09-06T07:01:19;19.50;99.90
2487;DHT22;1254;49.144;8.212;2022-09-06T07:03:45;19.40;99.90
2487;DHT22;1254;49.144;8.212;2022-09-06T07:06:13;19.50;99.90
2487;DHT22;1254;49.144;8.212;2022-09-06T07:08:40;19.60;99.90
2487;DHT22;1254;49.144;8.212;2022-09-06T07:11:09;19.50;99.90
2487;DHT22;1254;49.144;8.212;2022-09-06T07:13:36;19.50;99.90
2487;DHT22;1254;49.144;8.212;2022-09-06T07:16:18;19.60;99.90
2487;DHT22;1254;49.144;8.212;2022-09-06T07:18:45;19.80;99.90
2487;DHT22;1254;49.144;8.212;2022-09-06T07:21:16;19.80;99.90
2487;DHT22;1254;49.144;8.212;2022-09-06T07:23:43;19.90;99.90
2487;DHT22;1254;49.144;8.212;2022-09-06T07:26:14;20.20;99.90
2487;DHT22;1254;49.144;8.212;2022-09-06T07:28:41;20.20;99.90
2487;DHT22;1254;49.144;8.212;2022-09-06T07:31:09;20.10;99.90
2487;DHT22;1254;49.144;8.212;2022-09-06T07:33:36;20.10;99.90
2487;DHT22;1254;49.144;8.212;2022-09-06T07:36:04;20.10;99.90
2487;DHT22;1254;49.144;8.212;2022-09-06T07:38:33;20.10;99.90
2487;DHT22;1254;49.144;8.212;2022-09-06T07:41:02;20.20;99.90
2487;DHT22;1254;49.144;8.212;2022-09-06T07:43:30;20.40;99.90
2487;DHT22;1254;49.144;8.212;2022-09-06T07:48:36;20.70;99.90
2487;DHT22;1254;49.144;8.212;2022-09-06T07:51:10;20.90;99.90
2487;DHT22;1254;49.144;8.212;2022-09-06T07:53:40;21.30;99.90
2487;DHT22;1254;49.144;8.212;2022-09-06T07:56:10;21.10;99.90
2487;DHT22;1254;49.144;8.212;2022-09-06T07:58:37;21.30;99.90
2487;DHT22;1254;49.144;8.212;2022-09-06T08:04:04;21.50;99.90
2487;DHT22;1254;49.144;8.212;2022-09-06T08:06:33;21.50;99.90
2487;DHT22;1254;49.144;8.212;2022-09-06T08:09:02;21.70;99.90
2487;DHT22;1254;49.144;8.212;2022-09-06T08:11:32;22.00;99.90
2487;DHT22;1254;49.144;8.212;2022-09-06T08:14:00;22.20;99.90
2487;DHT22;1254;49.144;8.212;2022-09-06T08:16:28;22.10;99.90
2487;DHT22;1254;49.144;8.212;2022-09-06T08:18:57;22.20;99.90
2487;DHT22;1254;49.144;8.212;2022-09-06T08:21:26;22.30;99.90
2487;DHT22;1254;49.144;8.212;2022-09-06T08:23:56;22.50;99.90
2487;DHT22;1254;49.144;8.212;2022-09-06T08:26:24;22.70;99.90
2487;DHT22;1254;49.144;8.212;2022-09-06T08:28:55;22.90;99.90
2487;DHT22;1254;49.144;8.212;2022-09-06T08:31:23;23.10;99.90
2487;DHT22;1254;49.144;8.212;2022-09-06T08:33:51;22.90;99.90
2487;DHT22;1254;49.144;8.212;2022-09-06T08:36:17;23.10;99.90
2487;DHT22;1254;49.144;8.212;2022-09-06T08:38:44;23.10;99.90
2487;DHT22;1254;49.144;8.212;2022-09-06T08:43:52;23.30;99.90
2487;DHT22;1254;49.144;8.212;2022-09-06T08:49:28;23.60;99.90
2487;DHT22;1254;49.144;8.212;2022-09-06T09:00:16;23.10;99.90
2487;DHT22;1254;49.144;8.212;2022-09-06T09:05:34;23.50;99.90
2487;DHT22;1254;49.144;8.212;2022-09-06T09:08:23;23.80;99.90
2487;DHT22;1254;49.144;8.212;2022-09-06T09:11:04;24.00;99.90
2487;DHT22;1254;49.144;8.212;2022-09-06T09:13:50;23.80;99.90
2487;DHT22;1254;49.144;8.212;2022-09-06T09:16:19;23.80;99.90
2487;DHT22;1254;49.144;8.212;2022-09-06T09:18:51;24.20;99.90
2487;DHT22;1254;49.144;8.212;2022-09-06T09:21:22;24.10;99.90
2487;DHT22;1254;49.144;8.212;2022-09-06T09:23:54;23.80;99.90
2487;DHT22;1254;49.144;8.212;2022-09-06T09:26:27;24.10;99.90
2487;DHT22;1254;49.144;8.212;2022-09-06T09:29:11;24.30;99.90
2487;DHT22;1254;49.144;8.212;2022-09-06T09:31:46;24.40;99.90
2487;DHT22;1254;49.144;8.212;2022-09-06T09:34:36;24.70;99.90
2487;DHT22;1254;49.144;8.212;2022-09-06T09:37:11;24.80;99.90
2487;DHT22;1254;49.144;8.212;2022-09-06T09:39:39;24.90;99.90
2487;DHT22;1254;49.144;8.212;2022-09-06T09:42:06;25.10;99.90
2487;DHT22;1254;49.144;8.212;2022-09-06T09:44:41;24.90;99.90
2487;DHT22;1254;49.144;8.212;2022-09-06T09:47:25;25.20;99.90
2487;DHT22;1254;49.144;8.212;2022-09-06T09:49:54;25.50;99.90
2487;DHT22;1254;49.144;8.212;2022-09-06T09:52:29;25.80;99.90
2487;DHT22;1254;49.144;8.212;2022-09-06T09:55:01;25.90;99.90
2487;DHT22;1254;49.144;8.212;2022-09-06T09:57:31;25.70;99.90
2487;DHT22;1254;49.144;8.212;2022-09-06T10:00:08;26.00;99.90
2487;DHT22;1254;49.144;8.212;2022-09-06T10:02:40;26.00;99.90
2487;DHT22;1254;49.144;8.212;2022-09-06T10:13:25;26.30;99.90
2487;DHT22;1254;49.144;8.212;2022-09-06T10:15:56;26.20;99.90
2487;DHT22;1254;49.144;8.212;2022-09-06T10:18:31;26.10;99.90
2487;DHT22;1254;49.144;8.212;2022-09-06T10:21:14;25.90;99.90
2487;DHT22;1254;49.144;8.212;2022-09-06T10:29:14;25.90;99.90
2487;DHT22;1254;49.144;8.212;2022-09-06T10:46:43;26.40;99.90
2487;DHT22;1254;49.144;8.212;2022-09-06T10:49:15;26.60;99.90
2487;DHT22;1254;49.144;8.212;2022-09-06T10:54:13;26.60;99.90
2487;DHT22;1254;49.144;8.212;2022-09-06T10:59:46;26.80;99.90
2487;DHT22;1254;49.144;8.212;2022-09-06T11:05:51;27.20;99.90
2487;DHT22;1254;49.144;8.212;2022-09-06T11:08:02;27.40;99.90
2487;DHT22;1254;49.144;8.212;2022-09-06T11:10:33;27.70;99.90
2487;DHT22;1254;49.144;8.212;2022-09-06T11:13:27;28.30;99.90
2487;DHT22;1254;49.144;8.212;2022-09-06T11:16:10;28.40;99.90
2487;DHT22;1254;49.144;8.212;2022-09-06T11:27:04;29.40;99.90
2487;DHT22;1254;49.144;8.212;2022-09-06T11:29:40;29.60;99.90
2487;DHT22;1254;49.144;8.212;2022-09-06T11:32:38;29.90;99.90
2487;DHT22;1254;49.144;8.212;2022-09-06T11:35:07;29.30;99.90
2487;DHT22;1254;49.144;8.212;2022-09-06T11:37:40;29.10;99.90
2487;DHT22;1254;49.144;8.212;2022-09-06T11:40:20;29.70;99.90
2487;DHT22;1254;49.144;8.212;2022-09-06T11:45:44;29.60;99.90
2487;DHT22;1254;49.144;8.212;2022-09-06T11:53:29;30.50;99.90
2487;DHT22;1254;49.144;8.212;2022-09-06T11:58:30;30.90;99.90
2487;DHT22;1254;49.144;8.212;2022-09-06T12:06:26;30.40;99.90
2487;DHT22;1254;49.144;8.212;2022-09-06T12:08:55;30.60;99.90
2487;DHT22;1254;49.144;8.212;2022-09-06T12:13:58;31.10;99.90
2487;DHT22;1254;49.144;8.212;2022-09-06T12:19:45;30.70;99.90
2487;DHT22;1254;49.144;8.212;2022-09-06T12:25:01;31.30;99.90
2487;DHT22;1254;49.144;8.212;2022-09-06T12:27:37;31.30;99.90
2487;DHT22;1254;49.144;8.212;2022-09-06T12:30:10;31.40;99.90
2487;DHT22;1254;49.144;8.212;2022-09-06T12:32:42;32.10;99.90
2487;DHT22;1254;49.144;8.212;2022-09-06T12:35:27;32.30;99.90
2487;DHT22;1254;49.144;8.212;2022-09-06T12:37:58;32.20;99.90
2487;DHT22;1254;49.144;8.212;2022-09-06T12:40:28;32.10;99.90
2487;DHT22;1254;49.144;8.212;2022-09-06T12:42:56;31.70;99.90
2487;DHT22;1254;49.144;8.212;2022-09-06T12:45:23;31.40;99.90
2487;DHT22;1254;49.144;8.212;2022-09-06T12:48:03;32.20;99.90
2487;DHT22;1254;49.144;8.212;2022-09-06T12:50:30;32.60;99.90
2487;DHT22;1254;49.144;8.212;2022-09-06T12:52:59;32.70;99.90
2487;DHT22;1254;49.144;8.212;2022-09-06T12:55:34;32.50;99.90
2487;DHT22;1254;49.144;8.212;2022-09-06T12:58:06;32.30;99.90
2487;DHT22;1254;49.144;8.212;2022-09-06T13:00:42;32.30;99.90
2487;DHT22;1254;49.144;8.212;2022-09-06T13:03:27;32.70;99.90
2487;DHT22;1254;49.144;8.212;2022-09-06T13:05:55;32.60;99.90
2487;DHT22;1254;49.144;8.212;2022-09-06T13:08:37;33.40;99.90
2487;DHT22;1254;49.144;8.212;2022-09-06T13:11:10;34.00;99.90
2487;DHT22;1254;49.144;8.212;2022-09-06T13:13:49;33.30;99.90
2487;DHT22;1254;49.144;8.212;2022-09-06T13:16:35;34.30;99.90
2487;DHT22;1254;49.144;8.212;2022-09-06T13:19:17;34.20;99.90
2487;DHT22;1254;49.144;8.212;2022-09-06T13:21:53;33.40;99.90
2487;DHT22;1254;49.144;8.212;2022-09-06T13:27:22;34.40;99.90
2487;DHT22;1254;49.144;8.212;2022-09-06T13:30:00;34.20;99.90
2487;DHT22;1254;49.144;8.212;2022-09-06T13:32:28;33.30;99.90
2487;DHT22;1254;49.144;8.212;2022-09-06T13:34:57;33.10;99.90
2487;DHT22;1254;49.144;8.212;2022-09-06T13:37:26;33.10;99.90
2487;DHT22;1254;49.144;8.212;2022-09-06T13:39:53;34.00;99.90
2487;DHT22;1254;49.144;8.212;2022-09-06T13:42:29;33.50;99.90
2487;DHT22;1254;49.144;8.212;2022-09-06T13:44:56;33.70;99.90
2487;DHT22;1254;49.144;8.212;2022-09-06T13:47:27;33.90;99.90
2487;DHT22;1254;49.144;8.212;2022-09-06T13:49:54;34.70;99.90
2487;DHT22;1254;49.144;8.212;2022-09-06T13:52:20;34.40;99.90
2487;DHT22;1254;49.144;8.212;2022-09-06T13:54:47;34.60;99.90
2487;DHT22;1254;49.144;8.212;2022-09-06T13:57:14;34.30;99.90
2487;DHT22;1254;49.144;8.212;2022-09-06T13:59:42;34.50;99.90
2487;DHT22;1254;49.144;8.212;2022-09-06T14:02:11;34.20;99.90
2487;DHT22;1254;49.144;8.212;2022-09-06T14:04:38;33.80;99.90
2487;DHT22;1254;49.144;8.212;2022-09-06T14:07:04;33.60;99.90
2487;DHT22;1254;49.144;8.212;2022-09-06T14:09:31;33.80;99.90
2487;DHT22;1254;49.144;8.212;2022-09-06T14:11:59;33.70;99.90
2487;DHT22;1254;49.144;8.212;2022-09-06T14:14:26;32.90;99.90
2487;DHT22;1254;49.144;8.212;2022-09-06T14:16:52;33.40;99.90
2487;DHT22;1254;49.144;8.212;2022-09-06T14:19:19;33.60;99.90
2487;DHT22;1254;49.144;8.212;2022-09-06T14:21:45;33.20;99.90
2487;DHT22;1254;49.144;8.212;2022-09-06T14:24:12;32.70;99.90
2487;DHT22;1254;49.144;8.212;2022-09-06T14:26:39;32.10;99.90
2487;DHT22;1254;49.144;8.212;2022-09-06T14:29:05;31.70;99.90
2487;DHT22;1254;49.144;8.212;2022-09-06T14:31:33;31.20;99.90
2487;DHT22;1254;49.144;8.212;2022-09-06T14:34:00;30.80;99.90
2487;DHT22;1254;49.144;8.212;2022-09-06T14:36:28;30.60;99.90
2487;DHT22;1254;49.144;8.212;2022-09-06T14:38:58;30.60;99.90
2487;DHT22;1254;49.144;8.212;2022-09-06T14:41:25;30.50;99.90
2487;DHT22;1254;49.144;8.212;2022-09-06T14:43:54;30.50;99.90
2487;DHT22;1254;49.144;8.212;2022-09-06T14:46:23;31.10;99.90
2487;DHT22;1254;49.144;8.212;2022-09-06T14:49:02;31.60;99.90
2487;DHT22;1254;49.144;8.212;2022-09-06T14:51:29;31.50;99.90
2487;DHT22;1254;49.144;8.212;2022-09-06T14:54:02;31.40;99.90
2487;DHT22;1254;49.144;8.212;2022-09-06T14:56:30;31.40;99.90
2487;DHT22;1254;49.144;8.212;2022-09-06T14:58:57;31.90;99.90
2487;DHT22;1254;49.144;8.212;2022-09-06T15:01:27;30.80;99.90
2487;DHT22;1254;49.144;8.212;2022-09-06T15:03:59;30.90;99.90
2487;DHT22;1254;49.144;8.212;2022-09-06T15:06:29;30.60;99.90
2487;DHT22;1254;49.144;8.212;2022-09-06T15:08:56;30.10;99.90
2487;DHT22;1254;49.144;8.212;2022-09-06T15:11:38;30.20;99.90
2487;DHT22;1254;49.144;8.212;2022-09-06T15:14:16;29.90;99.90
2487;DHT22;1254;49.144;8.212;2022-09-06T15:16:44;29.80;99.90
2487;DHT22;1254;49.144;8.212;2022-09-06T15:19:11;29.90;99.90
2487;DHT22;1254;49.144;8.212;2022-09-06T15:21:38;30.10;99.90
2487;DHT22;1254;49.144;8.212;2022-09-06T15:24:05;30.20;99.90
2487;DHT22;1254;49.144;8.212;2022-09-06T15:26:32;30.30;99.90
2487;DHT22;1254;49.144;8.212;2022-09-06T15:29:00;30.30;99.90
2487;DHT22;1254;49.144;8.212;2022-09-06T15:31:28;30.60;99.90
2487;DHT22;1254;49.144;8.212;2022-09-06T15:33:54;30.40;99.90
2487;DHT22;1254;49.144;8.212;2022-09-06T15:36:21;30.00;99.90
2487;DHT22;1254;49.144;8.212;2022-09-06T15:38:49;30.00;99.90
2487;DHT22;1254;49.144;8.212;2022-09-06T15:41:21;30.20;99.90
2487;DHT22;1254;49.144;8.212;2022-09-06T15:43:52;30.30;99.90
2487;DHT22;1254;49.144;8.212;2022-09-06T15:49:08;29.80;99.90
2487;DHT22;1254;49.144;8.212;2022-09-06T15:51:36;29.80;99.90
2487;DHT22;1254;49.144;8.212;2022-09-06T15:54:04;29.80;99.90
2487;DHT22;1254;49.144;8.212;2022-09-06T15:56:31;30.00;99.90
2487;DHT22;1254;49.144;8.212;2022-09-06T15:58:58;29.80;99.90
2487;DHT22;1254;49.144;8.212;2022-09-06T16:01:25;29.90;99.90
2487;DHT22;1254;49.144;8.212;2022-09-06T16:03:54;29.80;99.90
2487;DHT22;1254;49.144;8.212;2022-09-06T16:06:26;29.80;99.90
2487;DHT22;1254;49.144;8.212;2022-09-06T16:09:07;29.50;99.90
2487;DHT22;1254;49.144;8.212;2022-09-06T16:11:35;29.50;99.90
2487;DHT22;1254;49.144;8.212;2022-09-06T16:14:08;29.60;99.90
2487;DHT22;1254;49.144;8.212;2022-09-06T16:16:35;29.70;99.90
2487;DHT22;1254;49.144;8.212;2022-09-06T16:19:03;29.60;99.90
2487;DHT22;1254;49.144;8.212;2022-09-06T16:21:31;29.70;99.90
2487;DHT22;1254;49.144;8.212;2022-09-06T16:24:01;29.70;99.90
2487;DHT22;1254;49.144;8.212;2022-09-06T16:26:33;29.60;99.90
2487;DHT22;1254;49.144;8.212;2022-09-06T16:29:02;29.80;99.90
2487;DHT22;1254;49.144;8.212;2022-09-06T16:31:29;29.70;99.90
2487;DHT22;1254;49.144;8.212;2022-09-06T16:33:56;29.60;99.90
2487;DHT22;1254;49.144;8.212;2022-09-06T16:36:24;29.50;99.90
2487;DHT22;1254;49.144;8.212;2022-09-06T16:38:50;29.40;99.90
2487;DHT22;1254;49.144;8.212;2022-09-06T16:41:18;29.40;99.90
2487;DHT22;1254;49.144;8.212;2022-09-06T16:43:47;29.40;99.90
2487;DHT22;1254;49.144;8.212;2022-09-06T16:46:24;29.10;99.90
2487;DHT22;1254;49.144;8.212;2022-09-06T16:48:56;29.20;99.90
2487;DHT22;1254;49.144;8.212;2022-09-06T16:51:24;29.10;99.90
2487;DHT22;1254;49.144;8.212;2022-09-06T16:53:52;29.00;99.90
2487;DHT22;1254;49.144;8.212;2022-09-06T16:56:22;28.90;99.90
2487;DHT22;1254;49.144;8.212;2022-09-06T16:58:55;28.90;99.90
2487;DHT22;1254;49.144;8.212;2022-09-06T17:01:23;28.80;99.90
2487;DHT22;1254;49.144;8.212;2022-09-06T17:03:50;28.70;99.90
2487;DHT22;1254;49.144;8.212;2022-09-06T17:06:17;28.70;99.90
2487;DHT22;1254;49.144;8.212;2022-09-06T17:08:44;28.80;99.90
2487;DHT22;1254;49.144;8.212;2022-09-06T17:11:16;28.70;99.90
2487;DHT22;1254;49.144;8.212;2022-09-06T17:13:46;28.70;99.90
2487;DHT22;1254;49.144;8.212;2022-09-06T17:16:13;28.60;99.90
2487;DHT22;1254;49.144;8.212;2022-09-06T17:18:59;28.50;99.90
2487;DHT22;1254;49.144;8.212;2022-09-06T17:21:28;28.40;99.90
2487;DHT22;1254;49.144;8.212;2022-09-06T17:23:56;28.40;99.90
2487;DHT22;1254;49.144;8.212;2022-09-06T17:26:33;28.40;99.90
2487;DHT22;1254;49.144;8.212;2022-09-06T17:29:00;28.20;99.90
2487;DHT22;1254;49.144;8.212;2022-09-06T17:31:27;28.20;99.90
2487;DHT22;1254;49.144;8.212;2022-09-06T17:33:54;28.10;99.90
2487;DHT22;1254;49.144;8.212;2022-09-06T17:36:26;28.00;99.90
2487;DHT22;1254;49.144;8.212;2022-09-06T17:39:03;27.80;99.90
2487;DHT22;1254;49.144;8.212;2022-09-06T17:41:36;27.70;99.90
2487;DHT22;1254;49.144;8.212;2022-09-06T17:44:05;27.50;99.90
2487;DHT22;1254;49.144;8.212;2022-09-06T17:46:35;27.40;99.90
2487;DHT22;1254;49.144;8.212;2022-09-06T17:49:02;27.30;99.90
2487;DHT22;1254;49.144;8.212;2022-09-06T17:51:31;27.10;99.90
2487;DHT22;1254;49.144;8.212;2022-09-06T17:53:58;26.90;99.90
2487;DHT22;1254;49.144;8.212;2022-09-06T17:56:25;26.80;99.90
2487;DHT22;1254;49.144;8.212;2022-09-06T17:58:55;26.60;99.90
2487;DHT22;1254;49.144;8.212;2022-09-06T18:01:23;26.30;99.90
2487;DHT22;1254;49.144;8.212;2022-09-06T18:03:51;26.00;99.90
2487;DHT22;1254;49.144;8.212;2022-09-06T18:06:20;25.70;99.90
2487;DHT22;1254;49.144;8.212;2022-09-06T18:08:52;25.50;99.90
2487;DHT22;1254;49.144;8.212;2022-09-06T18:11:28;25.30;99.90
2487;DHT22;1254;49.144;8.212;2022-09-06T18:14:00;25.30;99.90
2487;DHT22;1254;49.144;8.212;2022-09-06T18:16:28;25.20;99.90
2487;DHT22;1254;49.144;8.212;2022-09-06T18:18:57;25.10;99.90
2487;DHT22;1254;49.144;8.212;2022-09-06T18:21:25;25.10;99.90
2487;DHT22;1254;49.144;8.212;2022-09-06T18:23:53;25.00;99.90